sensor_id;sensor_type;location;lat;lon;timestamp;pressure;altitude;pressure_sealevel;temperature
72336;BMP280;62171;48.446;8.834;2022-09-09T00:04:37;97265.78;;;12.39
72336;BMP280;62171;48.446;8.834;2022-09-09T00:12:51;97253.75;;;12.29
72336;BMP280;62171;48.446;8.834;2022-09-09T00:15:22;97251.78;;;12.33
72336;BMP280;62171;48.446;8.834;2022-09-09T00:17:56;97255.88;;;12.34
72336;BMP280;62171;48.446;8.834;2022-09-09T00:23:14;97248.44;;;12.33
72336;BMP280;62171;48.446;8.834;2022-09-09T00:28:28;97255.31;;;12.43
72336;BMP280;62171;48.446;8.834;2022-09-09T00:31:00;97254.25;;;12.40
72336;BMP280;62171;48.446;8.834;2022-09-09T00:33:27;97242.34;;;12.39
72336;BMP280;62171;48.446;8.834;2022-09-09T00:35:59;97240.16;;;12.38
72336;BMP280;62171;48.446;8.834;2022-09-09T00:38:37;97248.00;;;12.38
72336;BMP280;62171;48.446;8.834;2022-09-09T00:41:22;97244.31;;;12.35
72336;BMP280;62171;48.446;8.834;2022-09-09T00:50:02;97248.53;;;12.13
72336;BMP280;62171;48.446;8.834;2022-09-09T00:52:46;97244.63;;;12.05
72336;BMP280;62171;48.446;8.834;2022-09-09T00:58:00;97254.56;;;11.94
72336;BMP280;62171;48.446;8.834;2022-09-09T01:00:43;97252.09;;;11.87
72336;BMP280;62171;48.446;8.834;2022-09-09T01:03:22;97252.88;;;11.84
72336;BMP280;62171;48.446;8.834;2022-09-09T01:09:04;97250.94;;;11.72
72336;BMP280;62171;48.446;8.834;2022-09-09T01:17:03;97244.72;;;11.66
72336;BMP280;62171;48.446;8.834;2022-09-09T01:22:13;97245.00;;;11.52
72336;BMP280;62171;48.446;8.834;2022-09-09T01:27:17;97256.00;;;11.40
72336;BMP280;62171;48.446;8.834;2022-09-09T01:29:43;97254.69;;;11.31
72336;BMP280;62171;48.446;8.834;2022-09-09T01:32:37;97254.16;;;11.40
72336;BMP280;62171;48.446;8.834;2022-09-09T01:35:05;97258.22;;;11.41
72336;BMP280;62171;48.446;8.834;2022-09-09T01:37:32;97261.22;;;11.40
72336;BMP280;62171;48.446;8.834;2022-09-09T01:39:58;97266.41;;;11.40
72336;BMP280;62171;48.446;8.834;2022-09-09T01:42:23;97270.03;;;11.46
72336;BMP280;62171;48.446;8.834;2022-09-09T01:44:48;97251.50;;;11.44
72336;BMP280;62171;48.446;8.834;2022-09-09T01:47:15;97266.28;;;11.47
72336;BMP280;62171;48.446;8.834;2022-09-09T01:49:40;97270.16;;;11.58
72336;BMP280;62171;48.446;8.834;2022-09-09T01:52:05;97264.22;;;11.58
72336;BMP280;62171;48.446;8.834;2022-09-09T01:54:33;97267.91;;;11.60
72336;BMP280;62171;48.446;8.834;2022-09-09T02:02:13;97267.47;;;11.81
72336;BMP280;62171;48.446;8.834;2022-09-09T02:04:48;97257.63;;;11.89
72336;BMP280;62171;48.446;8.834;2022-09-09T02:07:27;97266.09;;;11.93
72336;BMP280;62171;48.446;8.834;2022-09-09T02:10:06;97259.81;;;11.90
72336;BMP280;62171;48.446;8.834;2022-09-09T02:12:34;97257.91;;;11.94
72336;BMP280;62171;48.446;8.834;2022-09-09T02:15:05;97251.88;;;11.97
72336;BMP280;62171;48.446;8.834;2022-09-09T02:17:36;97259.25;;;11.99
72336;BMP280;62171;48.446;8.834;2022-09-09T02:20:08;97268.66;;;11.96
72336;BMP280;62171;48.446;8.834;2022-09-09T02:22:35;97280.09;;;11.99
72336;BMP280;62171;48.446;8.834;2022-09-09T02:25:06;97275.97;;;12.01
72336;BMP280;62171;48.446;8.834;2022-09-09T02:27:32;97271.81;;;12.20
72336;BMP280;62171;48.446;8.834;2022-09-09T02:29:59;97262.38;;;12.26
72336;BMP280;62171;48.446;8.834;2022-09-09T02:32:28;97273.09;;;12.32
72336;BMP280;62171;48.446;8.834;2022-09-09T02:35:03;97267.28;;;12.24
72336;BMP280;62171;48.446;8.834;2022-09-09T02:37:35;97261.56;;;12.13
72336;BMP280;62171;48.446;8.834;2022-09-09T02:40:05;97258.97;;;12.13
72336;BMP280;62171;48.446;8.834;2022-09-09T02:42:32;97276.56;;;12.09
72336;BMP280;62171;48.446;8.834;2022-09-09T02:45:03;97273.84;;;12.13
72336;BMP280;62171;48.446;8.834;2022-09-09T02:48:29;97263.19;;;12.23
72336;BMP280;62171;48.446;8.834;2022-09-09T02:53:36;97260.09;;;12.12
72336;BMP280;62171;48.446;8.834;2022-09-09T02:56:05;97259.13;;;12.06
72336;BMP280;62171;48.446;8.834;2022-09-09T02:58:32;97273.25;;;12.05
72336;BMP280;62171;48.446;8.834;2022-09-09T03:00:58;97270.41;;;11.99
72336;BMP280;62171;48.446;8.834;2022-09-09T03:03:26;97266.75;;;11.97
72336;BMP280;62171;48.446;8.834;2022-09-09T03:05:52;97271.16;;;12.00
72336;BMP280;62171;48.446;8.834;2022-09-09T03:08:17;97268.50;;;12.03
72336;BMP280;62171;48.446;8.834;2022-09-09T03:10:43;97272.38;;;12.12
72336;BMP280;62171;48.446;8.834;2022-09-09T03:13:08;97279.31;;;12.18
72336;BMP280;62171;48.446;8.834;2022-09-09T03:15:34;97275.41;;;12.26
72336;BMP280;62171;48.446;8.834;2022-09-09T03:18:00;97276.88;;;12.27
72336;BMP280;62171;48.446;8.834;2022-09-09T03:20:27;97276.16;;;12.43
72336;BMP280;62171;48.446;8.834;2022-09-09T03:22:53;97267.13;;;12.47
72336;BMP280;62171;48.446;8.834;2022-09-09T03:25:19;97265.63;;;12.46
72336;BMP280;62171;48.446;8.834;2022-09-09T03:27:44;97263.50;;;12.57
72336;BMP280;62171;48.446;8.834;2022-09-09T03:30:10;97258.47;;;12.66
72336;BMP280;62171;48.446;8.834;2022-09-09T03:32:36;97253.41;;;12.59
72336;BMP280;62171;48.446;8.834;2022-09-09T03:35:01;97258.88;;;12.49
72336;BMP280;62171;48.446;8.834;2022-09-09T03:37:26;97267.44;;;12.33
72336;BMP280;62171;48.446;8.834;2022-09-09T03:39:52;97265.81;;;12.23
72336;BMP280;62171;48.446;8.834;2022-09-09T03:42:19;97261.34;;;12.24
72336;BMP280;62171;48.446;8.834;2022-09-09T03:44:46;97264.25;;;12.26
72336;BMP280;62171;48.446;8.834;2022-09-09T03:47:19;97269.22;;;12.20
72336;BMP280;62171;48.446;8.834;2022-09-09T03:49:45;97270.31;;;12.23
72336;BMP280;62171;48.446;8.834;2022-09-09T03:52:10;97273.28;;;12.21
72336;BMP280;62171;48.446;8.834;2022-09-09T03:54:36;97265.88;;;12.36
72336;BMP280;62171;48.446;8.834;2022-09-09T03:57:02;97258.31;;;12.41
72336;BMP280;62171;48.446;8.834;2022-09-09T03:59:27;97254.09;;;12.47
72336;BMP280;62171;48.446;8.834;2022-09-09T04:01:53;97262.53;;;12.51
72336;BMP280;62171;48.446;8.834;2022-09-09T04:04:20;97249.25;;;12.46
72336;BMP280;62171;48.446;8.834;2022-09-09T04:06:46;97257.81;;;12.46
72336;BMP280;62171;48.446;8.834;2022-09-09T04:09:13;97263.88;;;12.43
72336;BMP280;62171;48.446;8.834;2022-09-09T04:11:38;97256.78;;;12.44
72336;BMP280;62171;48.446;8.834;2022-09-09T04:14:04;97255.38;;;12.55
72336;BMP280;62171;48.446;8.834;2022-09-09T04:16:31;97250.38;;;12.61
72336;BMP280;62171;48.446;8.834;2022-09-09T04:18:58;97252.59;;;12.62
72336;BMP280;62171;48.446;8.834;2022-09-09T04:21:25;97252.44;;;12.69
72336;BMP280;62171;48.446;8.834;2022-09-09T04:23:50;97245.09;;;12.64
72336;BMP280;62171;48.446;8.834;2022-09-09T04:26:16;97250.38;;;12.61
72336;BMP280;62171;48.446;8.834;2022-09-09T04:28:41;97253.72;;;12.61
72336;BMP280;62171;48.446;8.834;2022-09-09T04:31:09;97248.28;;;12.56
72336;BMP280;62171;48.446;8.834;2022-09-09T04:33:36;97254.47;;;12.46
72336;BMP280;62171;48.446;8.834;2022-09-09T04:36:02;97252.47;;;12.37
72336;BMP280;62171;48.446;8.834;2022-09-09T04:38:27;97254.00;;;12.35
72336;BMP280;62171;48.446;8.834;2022-09-09T04:40:53;97258.63;;;12.27
72336;BMP280;62171;48.446;8.834;2022-09-09T04:43:19;97263.19;;;12.23
72336;BMP280;62171;48.446;8.834;2022-09-09T04:45:50;97260.13;;;12.28
72336;BMP280;62171;48.446;8.834;2022-09-09T04:48:16;97269.22;;;12.36
72336;BMP280;62171;48.446;8.834;2022-09-09T04:50:42;97271.19;;;12.32
72336;BMP280;62171;48.446;8.834;2022-09-09T04:53:07;97270.13;;;12.30
72336;BMP280;62171;48.446;8.834;2022-09-09T04:55:33;97286.41;;;12.18
72336;BMP280;62171;48.446;8.834;2022-09-09T04:58:07;97287.56;;;12.17
72336;BMP280;62171;48.446;8.834;2022-09-09T05:00:34;97282.66;;;12.19
72336;BMP280;62171;48.446;8.834;2022-09-09T05:03:04;97283.22;;;12.26
72336;BMP280;62171;48.446;8.834;2022-09-09T05:05:31;97292.50;;;12.27
72336;BMP280;62171;48.446;8.834;2022-09-09T05:08:04;97292.66;;;12.20
72336;BMP280;62171;48.446;8.834;2022-09-09T05:10:30;97281.91;;;12.18
72336;BMP280;62171;48.446;8.834;2022-09-09T05:12:56;97288.38;;;12.30
72336;BMP280;62171;48.446;8.834;2022-09-09T05:15:21;97282.63;;;12.38
72336;BMP280;62171;48.446;8.834;2022-09-09T05:17:47;97284.38;;;12.41
72336;BMP280;62171;48.446;8.834;2022-09-09T05:20:12;97282.44;;;12.45
72336;BMP280;62171;48.446;8.834;2022-09-09T05:22:38;97281.75;;;12.57
72336;BMP280;62171;48.446;8.834;2022-09-09T05:25:03;97289.44;;;12.64
72336;BMP280;62171;48.446;8.834;2022-09-09T05:27:29;97284.69;;;12.75
72336;BMP280;62171;48.446;8.834;2022-09-09T05:29:56;97284.19;;;12.80
72336;BMP280;62171;48.446;8.834;2022-09-09T05:32:22;97295.28;;;12.84
72336;BMP280;62171;48.446;8.834;2022-09-09T05:34:48;97298.09;;;12.90
72336;BMP280;62171;48.446;8.834;2022-09-09T05:37:13;97298.84;;;12.91
72336;BMP280;62171;48.446;8.834;2022-09-09T05:39:38;97294.91;;;12.99
72336;BMP280;62171;48.446;8.834;2022-09-09T05:42:04;97289.75;;;13.11
72336;BMP280;62171;48.446;8.834;2022-09-09T05:44:30;97296.00;;;13.14
72336;BMP280;62171;48.446;8.834;2022-09-09T05:46:55;97296.41;;;13.12
72336;BMP280;62171;48.446;8.834;2022-09-09T05:49:21;97293.09;;;13.12
72336;BMP280;62171;48.446;8.834;2022-09-09T05:51:46;97294.53;;;13.13
72336;BMP280;62171;48.446;8.834;2022-09-09T05:54:13;97299.81;;;13.25
72336;BMP280;62171;48.446;8.834;2022-09-09T05:56:40;97297.13;;;13.29
72336;BMP280;62171;48.446;8.834;2022-09-09T05:59:06;97307.03;;;13.34
72336;BMP280;62171;48.446;8.834;2022-09-09T06:01:34;97302.25;;;13.45
72336;BMP280;62171;48.446;8.834;2022-09-09T06:04:00;97296.84;;;13.52
72336;BMP280;62171;48.446;8.834;2022-09-09T06:06:30;97295.28;;;13.54
72336;BMP280;62171;48.446;8.834;2022-09-09T06:08:56;97300.75;;;13.60
72336;BMP280;62171;48.446;8.834;2022-09-09T06:11:27;97307.84;;;13.72
72336;BMP280;62171;48.446;8.834;2022-09-09T06:13:56;97298.97;;;13.82
72336;BMP280;62171;48.446;8.834;2022-09-09T06:16:23;97300.03;;;13.85
72336;BMP280;62171;48.446;8.834;2022-09-09T06:18:49;97298.03;;;13.89
72336;BMP280;62171;48.446;8.834;2022-09-09T06:21:18;97310.69;;;14.03
72336;BMP280;62171;48.446;8.834;2022-09-09T06:23:44;97301.56;;;14.07
72336;BMP280;62171;48.446;8.834;2022-09-09T06:26:15;97304.31;;;14.16
72336;BMP280;62171;48.446;8.834;2022-09-09T06:28:43;97295.94;;;14.21
72336;BMP280;62171;48.446;8.834;2022-09-09T06:31:11;97296.03;;;14.30
72336;BMP280;62171;48.446;8.834;2022-09-09T06:33:40;97304.91;;;14.45
72336;BMP280;62171;48.446;8.834;2022-09-09T06:36:10;97304.69;;;14.53
72336;BMP280;62171;48.446;8.834;2022-09-09T06:38:36;97300.66;;;14.61
72336;BMP280;62171;48.446;8.834;2022-09-09T06:41:02;97299.59;;;14.71
72336;BMP280;62171;48.446;8.834;2022-09-09T06:43:28;97310.31;;;14.85
72336;BMP280;62171;48.446;8.834;2022-09-09T06:48:28;97304.28;;;15.10
72336;BMP280;62171;48.446;8.834;2022-09-09T06:53:29;97310.94;;;15.32
72336;BMP280;62171;48.446;8.834;2022-09-09T06:55:54;97307.09;;;15.46
72336;BMP280;62171;48.446;8.834;2022-09-09T06:58:20;97318.34;;;15.56
72336;BMP280;62171;48.446;8.834;2022-09-09T07:00:47;97310.41;;;15.68
72336;BMP280;62171;48.446;8.834;2022-09-09T07:03:13;97306.06;;;15.74
72336;BMP280;62171;48.446;8.834;2022-09-09T07:05:38;97311.97;;;15.87
72336;BMP280;62171;48.446;8.834;2022-09-09T07:08:04;97314.91;;;15.98
72336;BMP280;62171;48.446;8.834;2022-09-09T07:10:29;97320.44;;;16.00
72336;BMP280;62171;48.446;8.834;2022-09-09T07:12:54;97316.41;;;16.08
72336;BMP280;62171;48.446;8.834;2022-09-09T07:15:20;97307.94;;;16.13
72336;BMP280;62171;48.446;8.834;2022-09-09T07:17:46;97313.53;;;16.25
72336;BMP280;62171;48.446;8.834;2022-09-09T07:20:12;97321.41;;;16.43
72336;BMP280;62171;48.446;8.834;2022-09-09T07:22:38;97322.28;;;16.58
72336;BMP280;62171;48.446;8.834;2022-09-09T07:25:04;97316.19;;;16.70
72336;BMP280;62171;48.446;8.834;2022-09-09T07:27:29;97312.41;;;16.80
72336;BMP280;62171;48.446;8.834;2022-09-09T07:29:55;97326.69;;;16.88
72336;BMP280;62171;48.446;8.834;2022-09-09T07:32:20;97328.13;;;16.98
72336;BMP280;62171;48.446;8.834;2022-09-09T07:34:46;97319.09;;;16.99
72336;BMP280;62171;48.446;8.834;2022-09-09T07:37:12;97313.53;;;17.15
72336;BMP280;62171;48.446;8.834;2022-09-09T07:39:39;97316.38;;;17.35
72336;BMP280;62171;48.446;8.834;2022-09-09T07:42:04;97319.00;;;17.35
72336;BMP280;62171;48.446;8.834;2022-09-09T07:44:30;97324.81;;;17.48
72336;BMP280;62171;48.446;8.834;2022-09-09T07:47:00;97323.22;;;17.42
72336;BMP280;62171;48.446;8.834;2022-09-09T07:49:25;97318.00;;;17.33
72336;BMP280;62171;48.446;8.834;2022-09-09T07:51:51;97321.97;;;17.28
72336;BMP280;62171;48.446;8.834;2022-09-09T07:54:17;97323.25;;;17.33
72336;BMP280;62171;48.446;8.834;2022-09-09T07:56:45;97320.22;;;17.25
72336;BMP280;62171;48.446;8.834;2022-09-09T07:59:12;97329.56;;;17.26
72336;BMP280;62171;48.446;8.834;2022-09-09T08:01:43;97334.19;;;17.31
72336;BMP280;62171;48.446;8.834;2022-09-09T08:04:18;97334.97;;;17.73
72336;BMP280;62171;48.446;8.834;2022-09-09T08:06:50;97339.53;;;17.96
72336;BMP280;62171;48.446;8.834;2022-09-09T08:09:18;97329.47;;;18.19
72336;BMP280;62171;48.446;8.834;2022-09-09T08:11:43;97337.09;;;18.40
72336;BMP280;62171;48.446;8.834;2022-09-09T08:14:10;97336.78;;;18.62
72336;BMP280;62171;48.446;8.834;2022-09-09T08:16:41;97341.72;;;18.83
72336;BMP280;62171;48.446;8.834;2022-09-09T08:19:08;97337.53;;;18.91
72336;BMP280;62171;48.446;8.834;2022-09-09T08:21:35;97335.38;;;18.90
72336;BMP280;62171;48.446;8.834;2022-09-09T08:24:02;97337.06;;;18.78
72336;BMP280;62171;48.446;8.834;2022-09-09T08:26:33;97336.44;;;18.45
72336;BMP280;62171;48.446;8.834;2022-09-09T08:29:00;97338.22;;;18.25
72336;BMP280;62171;48.446;8.834;2022-09-09T08:31:32;97336.78;;;18.15
72336;BMP280;62171;48.446;8.834;2022-09-09T08:33:59;97333.72;;;18.16
72336;BMP280;62171;48.446;8.834;2022-09-09T08:36:27;97339.78;;;18.31
72336;BMP280;62171;48.446;8.834;2022-09-09T08:38:56;97335.72;;;18.45
72336;BMP280;62171;48.446;8.834;2022-09-09T08:47:11;97346.78;;;18.87
72336;BMP280;62171;48.446;8.834;2022-09-09T09:03:33;97326.19;;;19.78
72336;BMP280;62171;48.446;8.834;2022-09-09T09:11:40;97323.06;;;20.14
72336;BMP280;62171;48.446;8.834;2022-09-09T09:19:16;97320.81;;;20.79
72336;BMP280;62171;48.446;8.834;2022-09-09T09:22:04;97325.69;;;20.60
72336;BMP280;62171;48.446;8.834;2022-09-09T09:24:45;97328.94;;;20.70
72336;BMP280;62171;48.446;8.834;2022-09-09T09:27:21;97306.53;;;20.91
72336;BMP280;62171;48.446;8.834;2022-09-09T09:29:48;97313.19;;;20.81
72336;BMP280;62171;48.446;8.834;2022-09-09T09:32:18;97308.47;;;20.65
72336;BMP280;62171;48.446;8.834;2022-09-09T09:34:56;97315.19;;;20.66
72336;BMP280;62171;48.446;8.834;2022-09-09T09:37:33;97316.28;;;20.54
72336;BMP280;62171;48.446;8.834;2022-09-09T09:40:14;97307.13;;;20.49
72336;BMP280;62171;48.446;8.834;2022-09-09T09:43:00;97308.03;;;20.46
72336;BMP280;62171;48.446;8.834;2022-09-09T09:45:33;97293.88;;;20.75
72336;BMP280;62171;48.446;8.834;2022-09-09T09:48:04;97301.72;;;20.64
72336;BMP280;62171;48.446;8.834;2022-09-09T09:50:30;97297.59;;;20.57
72336;BMP280;62171;48.446;8.834;2022-09-09T09:53:01;97299.03;;;20.58
72336;BMP280;62171;48.446;8.834;2022-09-09T09:55:28;97293.22;;;20.54
72336;BMP280;62171;48.446;8.834;2022-09-09T09:58:01;97282.13;;;20.76
72336;BMP280;62171;48.446;8.834;2022-09-09T10:00:27;97287.56;;;21.23
72336;BMP280;62171;48.446;8.834;2022-09-09T10:02:52;97282.69;;;21.53
72336;BMP280;62171;48.446;8.834;2022-09-09T10:05:23;97279.63;;;21.66
72336;BMP280;62171;48.446;8.834;2022-09-09T10:08:11;97270.53;;;21.78
72336;BMP280;62171;48.446;8.834;2022-09-09T10:13:43;97285.09;;;22.21
72336;BMP280;62171;48.446;8.834;2022-09-09T10:17:19;97293.09;;;22.49
72336;BMP280;62171;48.446;8.834;2022-09-09T10:19:37;97284.19;;;22.68
72336;BMP280;62171;48.446;8.834;2022-09-09T10:25:00;97273.69;;;23.53
72336;BMP280;62171;48.446;8.834;2022-09-09T10:30:28;97276.41;;;23.31
72336;BMP280;62171;48.446;8.834;2022-09-09T10:33:09;97266.47;;;23.48
72336;BMP280;62171;48.446;8.834;2022-09-09T10:35:46;97283.63;;;23.41
72336;BMP280;62171;48.446;8.834;2022-09-09T10:56:38;97291.72;;;23.71
72336;BMP280;62171;48.446;8.834;2022-09-09T10:59:16;97314.09;;;23.92
72336;BMP280;62171;48.446;8.834;2022-09-09T11:01:53;97327.03;;;24.07
72336;BMP280;62171;48.446;8.834;2022-09-09T11:04:28;97339.28;;;23.63
72336;BMP280;62171;48.446;8.834;2022-09-09T11:06:58;97340.09;;;23.20
72336;BMP280;62171;48.446;8.834;2022-09-09T11:09:28;97324.19;;;22.92
72336;BMP280;62171;48.446;8.834;2022-09-09T11:11:57;97331.19;;;22.90
72336;BMP280;62171;48.446;8.834;2022-09-09T11:14:34;97334.06;;;23.08
72336;BMP280;62171;48.446;8.834;2022-09-09T11:20:11;97317.97;;;23.86
72336;BMP280;62171;48.446;8.834;2022-09-09T11:22:40;97312.19;;;23.76
72336;BMP280;62171;48.446;8.834;2022-09-09T11:25:23;97318.91;;;23.88
72336;BMP280;62171;48.446;8.834;2022-09-09T11:42:26;97326.34;;;28.67
72336;BMP280;62171;48.446;8.834;2022-09-09T11:44:51;97321.53;;;30.40
72336;BMP280;62171;48.446;8.834;2022-09-09T11:47:25;97324.53;;;31.21
72336;BMP280;62171;48.446;8.834;2022-09-09T11:49:55;97318.13;;;32.47
72336;BMP280;62171;48.446;8.834;2022-09-09T11:54:49;97336.81;;;34.40
72336;BMP280;62171;48.446;8.834;2022-09-09T11:57:27;97314.91;;;34.93
72336;BMP280;62171;48.446;8.834;2022-09-09T11:59:56;97316.84;;;33.26
72336;BMP280;62171;48.446;8.834;2022-09-09T12:02:26;97314.72;;;30.69
72336;BMP280;62171;48.446;8.834;2022-09-09T12:05:02;97335.94;;;29.69
72336;BMP280;62171;48.446;8.834;2022-09-09T12:07:38;97353.88;;;31.98
72336;BMP280;62171;48.446;8.834;2022-09-09T12:12:50;97345.72;;;28.88
72336;BMP280;62171;48.446;8.834;2022-09-09T12:17:46;97339.88;;;26.88
72336;BMP280;62171;48.446;8.834;2022-09-09T12:20:15;97331.69;;;25.67
72336;BMP280;62171;48.446;8.834;2022-09-09T12:28:23;97322.00;;;23.13
72336;BMP280;62171;48.446;8.834;2022-09-09T12:33:37;97320.28;;;22.27
72336;BMP280;62171;48.446;8.834;2022-09-09T12:36:11;97311.22;;;21.86
72336;BMP280;62171;48.446;8.834;2022-09-09T12:38:40;97308.88;;;21.99
72336;BMP280;62171;48.446;8.834;2022-09-09T12:41:15;97312.88;;;22.81
72336;BMP280;62171;48.446;8.834;2022-09-09T12:43:44;97308.44;;;24.77
72336;BMP280;62171;48.446;8.834;2022-09-09T12:46:17;97334.81;;;27.63
72336;BMP280;62171;48.446;8.834;2022-09-09T12:48:46;97315.50;;;28.73
72336;BMP280;62171;48.446;8.834;2022-09-09T12:51:31;97321.28;;;28.36
72336;BMP280;62171;48.446;8.834;2022-09-09T12:53:58;97326.03;;;30.15
72336;BMP280;62171;48.446;8.834;2022-09-09T12:56:27;97311.88;;;30.22
72336;BMP280;62171;48.446;8.834;2022-09-09T12:58:55;97302.66;;;29.07
72336;BMP280;62171;48.446;8.834;2022-09-09T13:01:31;97294.75;;;28.38
72336;BMP280;62171;48.446;8.834;2022-09-09T13:03:57;97297.41;;;27.03
72336;BMP280;62171;48.446;8.834;2022-09-09T13:06:23;97291.44;;;26.71
72336;BMP280;62171;48.446;8.834;2022-09-09T13:08:53;97305.06;;;26.23
72336;BMP280;62171;48.446;8.834;2022-09-09T13:11:23;97313.63;;;27.78
72336;BMP280;62171;48.446;8.834;2022-09-09T13:13:53;97292.91;;;30.58
72336;BMP280;62171;48.446;8.834;2022-09-09T13:16:39;97301.94;;;31.88
72336;BMP280;62171;48.446;8.834;2022-09-09T13:19:09;97286.28;;;30.66
72336;BMP280;62171;48.446;8.834;2022-09-09T13:21:39;97285.75;;;29.12
72336;BMP280;62171;48.446;8.834;2022-09-09T13:24:06;97288.06;;;28.80
72336;BMP280;62171;48.446;8.834;2022-09-09T13:26:54;97313.78;;;31.29
72336;BMP280;62171;48.446;8.834;2022-09-09T13:29:21;97302.34;;;32.43
72336;BMP280;62171;48.446;8.834;2022-09-09T13:31:53;97304.34;;;33.93
72336;BMP280;62171;48.446;8.834;2022-09-09T13:34:28;97297.31;;;33.25
72336;BMP280;62171;48.446;8.834;2022-09-09T13:37:02;97287.84;;;36.48
72336;BMP280;62171;48.446;8.834;2022-09-09T13:39:32;97293.88;;;36.25
72336;BMP280;62171;48.446;8.834;2022-09-09T13:41:58;97277.81;;;36.83
72336;BMP280;62171;48.446;8.834;2022-09-09T13:44:38;97278.75;;;36.11
72336;BMP280;62171;48.446;8.834;2022-09-09T13:47:15;97284.47;;;35.63
72336;BMP280;62171;48.446;8.834;2022-09-09T13:49:42;97272.97;;;35.84
72336;BMP280;62171;48.446;8.834;2022-09-09T13:52:12;97269.06;;;32.73
72336;BMP280;62171;48.446;8.834;2022-09-09T13:54:39;97283.88;;;32.47
72336;BMP280;62171;48.446;8.834;2022-09-09T13:57:05;97282.13;;;34.59
72336;BMP280;62171;48.446;8.834;2022-09-09T13:59:31;97271.78;;;35.05
72336;BMP280;62171;48.446;8.834;2022-09-09T14:01:57;97256.72;;;35.42
72336;BMP280;62171;48.446;8.834;2022-09-09T14:04:23;97261.88;;;36.22
72336;BMP280;62171;48.446;8.834;2022-09-09T14:06:49;97248.34;;;37.12
72336;BMP280;62171;48.446;8.834;2022-09-09T14:09:16;97264.00;;;37.96
72336;BMP280;62171;48.446;8.834;2022-09-09T14:11:43;97262.34;;;39.76
72336;BMP280;62171;48.446;8.834;2022-09-09T14:14:09;97255.00;;;40.23
72336;BMP280;62171;48.446;8.834;2022-09-09T14:16:34;97260.16;;;42.74
72336;BMP280;62171;48.446;8.834;2022-09-09T14:19:00;97251.34;;;39.88
72336;BMP280;62171;48.446;8.834;2022-09-09T14:21:27;97264.28;;;39.31
72336;BMP280;62171;48.446;8.834;2022-09-09T14:23:52;97254.09;;;38.78
72336;BMP280;62171;48.446;8.834;2022-09-09T14:26:21;97257.81;;;38.07
72336;BMP280;62171;48.446;8.834;2022-09-09T14:28:47;97257.97;;;38.48
72336;BMP280;62171;48.446;8.834;2022-09-09T14:31:13;97262.97;;;38.78
72336;BMP280;62171;48.446;8.834;2022-09-09T14:33:39;97260.84;;;38.90
72336;BMP280;62171;48.446;8.834;2022-09-09T14:36:04;97255.44;;;37.17
72336;BMP280;62171;48.446;8.834;2022-09-09T14:38:35;97274.03;;;36.88
72336;BMP280;62171;48.446;8.834;2022-09-09T14:41:09;97267.09;;;37.08
72336;BMP280;62171;48.446;8.834;2022-09-09T14:43:35;97290.09;;;37.90
72336;BMP280;62171;48.446;8.834;2022-09-09T14:46:11;97267.63;;;34.07
72336;BMP280;62171;48.446;8.834;2022-09-09T14:48:37;97269.63;;;31.15
72336;BMP280;62171;48.446;8.834;2022-09-09T14:51:10;97309.94;;;30.15
72336;BMP280;62171;48.446;8.834;2022-09-09T14:53:36;97267.50;;;31.06
72336;BMP280;62171;48.446;8.834;2022-09-09T14:56:07;97263.13;;;28.28
72336;BMP280;62171;48.446;8.834;2022-09-09T14:58:33;97253.16;;;27.21
72336;BMP280;62171;48.446;8.834;2022-09-09T15:01:08;97253.59;;;25.22
72336;BMP280;62171;48.446;8.834;2022-09-09T15:03:36;97256.59;;;24.65
72336;BMP280;62171;48.446;8.834;2022-09-09T15:06:10;97258.06;;;23.90
72336;BMP280;62171;48.446;8.834;2022-09-09T15:08:37;97260.00;;;23.38
72336;BMP280;62171;48.446;8.834;2022-09-09T15:11:04;97265.84;;;23.03
72336;BMP280;62171;48.446;8.834;2022-09-09T15:13:30;97269.50;;;22.95
72336;BMP280;62171;48.446;8.834;2022-09-09T15:15:55;97258.66;;;22.98
72336;BMP280;62171;48.446;8.834;2022-09-09T15:18:21;97258.09;;;24.25
72336;BMP280;62171;48.446;8.834;2022-09-09T15:20:47;97264.38;;;25.54
72336;BMP280;62171;48.446;8.834;2022-09-09T15:23:13;97266.53;;;25.74
72336;BMP280;62171;48.446;8.834;2022-09-09T15:25:50;97254.56;;;25.62
72336;BMP280;62171;48.446;8.834;2022-09-09T15:28:15;97259.88;;;25.62
72336;BMP280;62171;48.446;8.834;2022-09-09T15:30:41;97247.06;;;25.23
72336;BMP280;62171;48.446;8.834;2022-09-09T15:33:09;97245.28;;;23.94
72336;BMP280;62171;48.446;8.834;2022-09-09T15:35:34;97260.44;;;23.53
72336;BMP280;62171;48.446;8.834;2022-09-09T15:38:02;97251.59;;;23.23
72336;BMP280;62171;48.446;8.834;2022-09-09T15:40:30;97256.28;;;22.73
72336;BMP280;62171;48.446;8.834;2022-09-09T15:42:57;97264.22;;;22.67
72336;BMP280;62171;48.446;8.834;2022-09-09T15:45:22;97275.63;;;24.04
72336;BMP280;62171;48.446;8.834;2022-09-09T15:47:48;97274.91;;;25.78
72336;BMP280;62171;48.446;8.834;2022-09-09T15:50:14;97289.38;;;26.64
72336;BMP280;62171;48.446;8.834;2022-09-09T15:52:39;97274.53;;;26.05
72336;BMP280;62171;48.446;8.834;2022-09-09T15:55:05;97282.34;;;25.48
72336;BMP280;62171;48.446;8.834;2022-09-09T15:57:30;97295.94;;;24.42
72336;BMP280;62171;48.446;8.834;2022-09-09T15:59:56;97299.53;;;26.34
72336;BMP280;62171;48.446;8.834;2022-09-09T16:02:22;97304.66;;;27.88
72336;BMP280;62171;48.446;8.834;2022-09-09T16:04:47;97303.41;;;29.58
72336;BMP280;62171;48.446;8.834;2022-09-09T16:07:12;97325.34;;;27.62
72336;BMP280;62171;48.446;8.834;2022-09-09T16:09:38;97304.75;;;25.10
72336;BMP280;62171;48.446;8.834;2022-09-09T16:12:05;97294.72;;;23.97
72336;BMP280;62171;48.446;8.834;2022-09-09T16:14:38;97306.81;;;22.97
72336;BMP280;62171;48.446;8.834;2022-09-09T16:17:04;97305.50;;;21.93
72336;BMP280;62171;48.446;8.834;2022-09-09T16:19:31;97310.94;;;21.36
72336;BMP280;62171;48.446;8.834;2022-09-09T16:21:56;97311.13;;;20.96
72336;BMP280;62171;48.446;8.834;2022-09-09T16:24:22;97314.47;;;20.91
72336;BMP280;62171;48.446;8.834;2022-09-09T16:26:50;97316.59;;;20.61
72336;BMP280;62171;48.446;8.834;2022-09-09T16:29:17;97309.03;;;20.49
72336;BMP280;62171;48.446;8.834;2022-09-09T16:31:44;97306.25;;;20.38
72336;BMP280;62171;48.446;8.834;2022-09-09T16:34:10;97307.63;;;20.28
72336;BMP280;62171;48.446;8.834;2022-09-09T16:36:37;97302.25;;;20.22
72336;BMP280;62171;48.446;8.834;2022-09-09T16:39:07;97306.59;;;20.25
72336;BMP280;62171;48.446;8.834;2022-09-09T16:41:34;97313.34;;;20.26